Terminal Aerodrome Forecast
Issued by NWS Jackson, KY

Home | Current Version | Previous Version | Text Only | Print | Product List | Glossary On
Versions: 1 2 3 4 5 6 7 8 9 10 11 12 13 14 15 16 17 18
000
FTUS43 KJKL 281120
TAFLOZ
TAF
KLOZ 281120Z 2812/2912 00000KT P6SM BKN070
     FM281300 00000KT P6SM FEW040 SCT080 BKN250
     FM281800 21003KT P6SM BKN060=

USA.gov is the U.S. government's official web portal to all federal, state and local government web resources and services.